International Virtual Aviation Organisation

Russian Federation and Kazakhstan MCD

 
UASS 240900Z 26003MPS 9999 BKN028 M08/M09 Q1035 R08/49//40 NOSIG RMK QFE755/1006
QNH:(hPa/inHg/mmHg)1035 / 30.56 / 776
QFE:(hPa/inHg/mmHg)1007 / 29.73 / 755
Temperature-8
Dew Point-9
Visibility> 10000
Weather
Cloud CoverBKN (2800);
Transition Height1133 m./4500 ft.
Transition LevelFL60
SQUAWK